Time;durP1;ratioP1;P1;durP2;ratioP2;P2;SDS_P1;SDS_P2;PMS_P1;PMS_P2;Temp;Humidity;BMP_temperature;BMP_pressure;BME280_temperature;BME280_humidity;BME280_pressure;Samples;Min_cycle;Max_cycle;Signal;HPM_P1;HPM_P2
2022/06/19 00:00:22;;;;;;;9.55;2.80;;;;;;;18.48;63.44;100770.94;5010403;28;20411;-79
2022/06/19 00:02:48;;;;;;;11.40;2.30;;;;;;;18.37;63.31;100761.41;5016668;28;20037;-80
2022/06/19 00:05:14;;;;;;;8.85;2.22;;;;;;;18.30;63.57;100763.06;4996536;28;20060;-79
2022/06/19 00:07:40;;;;;;;9.88;2.50;;;;;;;18.26;63.53;100776.00;5005008;28;20026;-79
2022/06/19 00:10:07;;;;;;;10.57;2.28;;;;;;;18.19;63.62;100769.66;5004621;28;20041;-79
2022/06/19 00:12:33;;;;;;;9.05;2.45;;;;;;;18.14;63.58;100766.63;5005545;28;20076;-79
2022/06/19 00:14:58;;;;;;;11.10;2.22;;;;;;;18.12;63.82;100764.09;5001933;28;20041;-80
2022/06/19 00:17:24;;;;;;;12.70;2.38;;;;;;;18.07;63.44;100754.88;5013137;28;20109;-80
2022/06/19 00:19:49;;;;;;;6.72;2.78;;;;;;;18.01;63.93;100753.69;5012579;28;20065;-80
2022/06/19 00:22:15;;;;;;;13.48;3.20;;;;;;;17.97;63.67;100763.13;5012417;28;20188;-79
2022/06/19 00:24:40;;;;;;;11.63;2.20;;;;;;;17.94;64.10;100760.75;5009442;28;20042;-80
2022/06/19 00:27:05;;;;;;;9.93;2.20;;;;;;;17.89;64.11;100765.78;5004031;28;20022;-79
2022/06/19 00:29:31;;;;;;;11.52;2.47;;;;;;;17.89;63.91;100785.44;5011092;28;20486;-80
2022/06/19 00:31:56;;;;;;;10.77;2.58;;;;;;;17.88;63.71;100794.50;5013212;28;20025;-80
2022/06/19 00:34:22;;;;;;;8.57;2.33;;;;;;;17.89;64.40;100793.50;5012929;28;20492;-80
2022/06/19 00:36:49;;;;;;;8.65;2.35;;;;;;;17.80;64.14;100796.31;5015496;28;20460;-80
2022/06/19 00:39:16;;;;;;;9.90;2.58;;;;;;;17.71;64.40;100790.09;4993618;28;20022;-80
2022/06/19 00:41:41;;;;;;;10.05;2.35;;;;;;;17.70;64.03;100791.94;5012195;28;20427;-79
2022/06/19 00:44:10;;;;;;;11.50;2.47;;;;;;;17.65;63.96;100788.91;5009138;28;20105;-80
2022/06/19 00:46:44;;;;;;;12.57;3.25;;;;;;;17.54;63.58;100783.84;4991170;28;20129;-79
2022/06/19 00:49:27;;;;;;;10.68;2.63;;;;;;;17.49;63.14;100786.19;5010700;28;20076;-79
2022/06/19 00:52:11;;;;;;;11.32;2.30;;;;;;;17.46;62.88;100783.84;5010066;28;20034;-79
2022/06/19 00:54:44;;;;;;;10.77;2.50;;;;;;;17.37;62.74;100781.13;4996080;28;20042;-80
2022/06/19 00:57:12;;;;;;;10.48;2.35;;;;;;;17.31;62.69;100789.81;5010141;28;20030;-79
2022/06/19 00:59:42;;;;;;;10.70;2.70;;;;;;;17.22;62.61;100788.13;4996941;28;20036;-80
2022/06/19 01:02:07;;;;;;;10.50;2.50;;;;;;;17.16;61.92;100784.22;5006624;28;20033;-79
2022/06/19 01:04:45;;;;;;;14.35;3.00;;;;;;;17.10;62.18;100776.84;5060607;23;20076;-76
2022/06/19 01:07:10;;;;;;;12.88;3.10;;;;;;;17.00;62.09;100770.75;5013934;28;20022;-77
2022/06/19 01:09:36;;;;;;;16.98;2.88;;;;;;;16.95;61.69;100776.63;5012904;28;20084;-76
2022/06/19 01:12:03;;;;;;;10.73;3.45;;;;;;;16.89;61.70;100771.88;5005462;28;20022;-76
2022/06/19 01:14:30;;;;;;;13.43;2.67;;;;;;;16.84;61.47;100790.28;5009519;28;20049;-76
2022/06/19 01:16:55;;;;;;;14.10;3.03;;;;;;;16.79;62.05;100822.09;5005218;28;20470;-77
2022/06/19 01:19:27;;;;;;;9.63;2.60;;;;;;;16.78;61.40;100911.59;5007918;28;20113;-78
2022/06/19 01:22:02;;;;;;;13.55;3.28;;;;;;;16.76;61.45;100957.34;5013378;28;20053;-77
2022/06/19 01:24:53;;;;;;;12.32;2.63;;;;;;;16.80;61.82;100904.25;4994032;28;20069;-77
2022/06/19 01:30:07;;;;;;;10.57;2.53;;;;;;;16.65;61.01;100869.09;4997779;28;20391;-78
2022/06/19 01:32:36;;;;;;;15.27;2.65;;;;;;;16.56;60.97;100921.00;5009484;28;20435;-78
2022/06/19 01:35:02;;;;;;;10.77;2.65;;;;;;;16.53;60.22;100906.06;4990001;28;20440;-78
2022/06/19 01:37:30;;;;;;;12.25;2.80;;;;;;;16.41;59.79;100851.00;5001752;28;20037;-80
2022/06/19 01:40:00;;;;;;;12.45;2.88;;;;;;;16.38;59.34;100888.84;5001154;28;20110;-77
2022/06/19 01:42:25;;;;;;;16.17;2.67;;;;;;;16.33;59.14;100942.91;5007143;28;20026;-78
2022/06/19 01:44:53;;;;;;;11.95;2.70;;;;;;;16.28;59.27;100921.91;4978799;28;20034;-78
2022/06/19 01:47:20;;;;;;;10.43;2.58;;;;;;;16.19;59.22;100871.94;5008144;28;20105;-78
2022/06/19 01:49:51;;;;;;;15.40;3.35;;;;;;;16.20;58.99;100894.19;4985174;28;20390;-78
2022/06/19 01:52:18;;;;;;;12.98;2.92;;;;;;;16.13;58.33;100903.84;5013458;28;20052;-78
2022/06/19 01:54:48;;;;;;;9.93;2.53;;;;;;;16.11;58.43;100887.09;5014139;28;20479;-78
2022/06/19 01:57:16;;;;;;;15.10;3.75;;;;;;;16.08;57.43;100910.50;4990903;28;20136;-77
2022/06/19 01:59:44;;;;;;;9.40;2.40;;;;;;;15.99;57.37;100915.94;4997347;28;20026;-77
2022/06/19 02:02:12;;;;;;;14.00;2.90;;;;;;;15.97;56.18;100894.66;4985881;28;20049;-77
2022/06/19 02:04:39;;;;;;;16.88;2.63;;;;;;;15.88;56.71;100916.97;4993510;28;20099;-77
2022/06/19 02:07:10;;;;;;;10.02;3.08;;;;;;;15.86;56.15;100911.78;4991942;28;20527;-78
2022/06/19 02:09:36;;;;;;;10.93;2.38;;;;;;;15.85;55.21;100909.25;4963970;28;20023;-78
2022/06/19 02:12:03;;;;;;;10.38;2.58;;;;;;;15.75;54.96;100917.31;4985834;28;20105;-77
2022/06/19 02:14:31;;;;;;;11.02;2.80;;;;;;;15.75;54.53;100897.72;4979711;28;20034;-77
2022/06/19 02:17:03;;;;;;;14.25;2.58;;;;;;;15.71;54.22;100899.88;4995929;28;20046;-77
2022/06/19 02:19:29;;;;;;;6.93;2.50;;;;;;;15.70;53.94;100890.13;4997534;28;20041;-78
2022/06/19 02:21:55;;;;;;;12.52;3.03;;;;;;;15.70;54.80;100904.38;4996101;28;20105;-78
2022/06/19 02:24:24;;;;;;;13.23;2.67;;;;;;;15.68;54.40;100921.56;4995395;28;20030;-78
2022/06/19 02:26:51;;;;;;;13.18;3.25;;;;;;;15.65;54.41;100922.72;4991329;28;20030;-79
2022/06/19 02:29:18;;;;;;;10.43;2.10;;;;;;;15.67;54.90;100920.75;4978886;28;20084;-78
2022/06/19 02:31:48;;;;;;;16.02;2.88;;;;;;;15.62;54.84;100923.03;4994074;28;20026;-78
2022/06/19 02:34:39;;;;;;;12.55;2.60;;;;;;;15.60;54.39;100921.47;4993904;28;20022;-78
2022/06/19 02:37:21;;;;;;;11.52;2.72;;;;;;;15.65;54.88;100935.25;4978976;28;20058;-78
2022/06/19 02:39:56;;;;;;;8.75;2.20;;;;;;;15.63;54.54;100927.38;4996047;28;20038;-79
2022/06/19 02:42:41;;;;;;;8.50;2.10;;;;;;;15.68;55.33;100938.47;4993923;28;20042;-78
2022/06/19 02:45:12;;;;;;;10.15;2.50;;;;;;;15.59;54.62;100950.09;4997001;28;20038;-78
2022/06/19 02:47:38;;;;;;;10.77;2.00;;;;;;;15.61;54.00;100925.84;4977835;28;20121;-79
2022/06/19 02:50:06;;;;;;;9.68;2.25;;;;;;;15.64;54.67;100904.97;4996145;28;20030;-77
2022/06/19 02:52:31;;;;;;;10.65;2.10;;;;;;;15.62;53.09;100904.28;4995017;28;20122;-78
2022/06/19 02:54:57;;;;;;;12.48;1.90;;;;;;;15.58;52.41;100913.59;4977967;28;20027;-79
2022/06/19 02:57:23;;;;;;;13.85;2.83;;;;;;;15.61;53.01;100966.00;4994939;28;21145;-78
2022/06/19 02:59:48;;;;;;;7.97;2.40;;;;;;;15.57;52.80;101031.53;4995177;28;20042;-79
2022/06/19 03:02:15;;;;;;;9.98;2.28;;;;;;;15.55;52.19;101037.03;4995326;28;20105;-79
2022/06/19 03:04:59;;;;;;;11.23;2.15;;;;;;;15.53;52.94;100990.84;4993114;28;20499;-78
2022/06/19 03:07:26;;;;;;;9.13;2.30;;;;;;;15.46;51.69;100961.13;4989416;28;20044;-78
2022/06/19 03:09:53;;;;;;;7.50;1.77;;;;;;;15.47;51.71;100948.56;4992188;28;20041;-79
2022/06/19 03:12:18;;;;;;;8.93;2.17;;;;;;;15.45;52.22;100948.72;4976870;28;20035;-78
2022/06/19 03:14:47;;;;;;;9.32;1.83;;;;;;;15.45;51.34;100945.22;4980468;28;20026;-79
2022/06/19 03:17:15;;;;;;;8.85;2.10;;;;;;;15.40;51.51;100934.09;4995309;28;20036;-78
2022/06/19 03:19:41;;;;;;;9.20;1.77;;;;;;;15.38;50.88;100918.19;4982278;28;20032;-78
2022/06/19 03:22:07;;;;;;;8.80;1.85;;;;;;;15.33;51.06;100907.91;4996210;28;20113;-77
2022/06/19 03:24:33;;;;;;;7.40;1.85;;;;;;;15.31;50.79;100890.34;4995476;28;20026;-78
2022/06/19 03:26:59;;;;;;;10.52;1.75;;;;;;;15.29;50.21;100911.91;4973844;28;20085;-77
2022/06/19 03:29:24;;;;;;;6.03;1.67;;;;;;;15.29;50.58;100925.28;4977948;28;20031;-77
2022/06/19 03:31:50;;;;;;;6.68;1.60;;;;;;;15.25;51.10;100928.38;4982968;28;20348;-77
2022/06/19 03:34:15;;;;;;;7.20;1.70;;;;;;;15.22;51.36;100905.44;4996138;28;20022;-77
2022/06/19 03:36:40;;;;;;;10.35;1.80;;;;;;;15.19;50.59;100905.75;4982596;28;20085;-77
2022/06/19 03:39:06;;;;;;;7.07;2.20;;;;;;;15.17;50.41;100903.22;4994082;28;20024;-77
2022/06/19 03:41:31;;;;;;;9.70;1.45;;;;;;;15.18;50.87;100914.75;4992779;28;20029;-77
2022/06/19 03:43:57;;;;;;;8.77;1.17;;;;;;;15.12;50.79;100861.81;4992055;28;20427;-78
2022/06/19 03:46:22;;;;;;;5.85;1.50;;;;;;;15.07;51.12;100840.00;4995525;28;20469;-78
2022/06/19 03:48:50;;;;;;;5.75;1.40;;;;;;;15.04;51.20;100861.69;4992242;28;20022;-77
2022/06/19 03:51:16;;;;;;;6.07;1.40;;;;;;;15.03;50.87;100900.16;4974872;28;20085;-77
2022/06/19 03:53:43;;;;;;;4.40;1.48;;;;;;;15.01;51.89;100993.09;4987994;28;20086;-78
2022/06/19 03:56:14;;;;;;;3.72;1.70;;;;;;;15.01;52.19;101018.00;4993802;28;20022;-78
2022/06/19 03:58:45;;;;;;;1.80;1.00;;;;;;;15.01;51.43;101001.09;4977729;28;20030;-78
2022/06/19 04:01:17;;;;;;;7.30;1.60;;;;;;;14.97;50.02;100914.94;4989496;28;20387;-77
2022/06/19 04:03:45;;;;;;;6.72;1.38;;;;;;;14.97;49.16;100939.00;4977759;28;20053;-78
2022/06/19 04:06:12;;;;;;;11.02;1.33;;;;;;;14.96;49.08;100937.34;4986399;28;20117;-78
2022/06/19 04:08:40;;;;;;;8.82;1.48;;;;;;;14.94;48.85;100917.94;4986427;28;20054;-78
2022/06/19 04:11:06;;;;;;;10.32;1.42;;;;;;;14.94;48.04;100883.16;4991520;28;20538;-78
2022/06/19 04:13:33;;;;;;;15.65;1.88;;;;;;;14.91;47.79;100868.22;4994721;28;20030;-78
2022/06/19 04:15:59;;;;;;;11.77;2.00;;;;;;;14.90;47.89;100841.63;4994273;28;20031;-78
2022/06/19 04:18:25;;;;;;;4.78;1.25;;;;;;;14.91;48.72;100816.59;4989008;28;20046;-78
2022/06/19 04:20:51;;;;;;;3.55;1.27;;;;;;;14.89;48.79;100800.69;4980919;28;20379;-77
2022/06/19 04:23:16;;;;;;;5.13;1.55;;;;;;;14.88;48.61;100780.28;4974981;28;20026;-77
2022/06/19 04:25:43;;;;;;;8.55;2.03;;;;;;;14.86;48.38;100763.53;4994305;28;20056;-78
2022/06/19 04:28:09;;;;;;;10.35;1.42;;;;;;;14.86;49.10;100752.00;4975513;28;20050;-78
2022/06/19 04:30:35;;;;;;;12.23;1.95;;;;;;;14.87;49.45;100761.69;4988339;28;20519;-79
2022/06/19 04:33:01;;;;;;;8.10;1.58;;;;;;;14.89;49.45;100757.03;4991285;28;20053;-78
2022/06/19 04:35:26;;;;;;;8.60;1.70;;;;;;;14.89;50.18;100762.38;4988397;28;20467;-79
2022/06/19 04:37:53;;;;;;;7.40;1.30;;;;;;;14.93;50.44;100756.59;4986304;28;20449;-78
2022/06/19 04:40:18;;;;;;;8.15;1.40;;;;;;;14.98;50.59;100754.31;4988979;28;20018;-78
2022/06/19 04:42:44;;;;;;;13.23;2.22;;;;;;;15.04;51.31;100762.72;4988778;28;20469;-78
2022/06/19 04:45:10;;;;;;;8.10;1.52;;;;;;;15.13;50.99;100767.22;4985861;28;20049;-79
2022/06/19 04:47:35;;;;;;;8.63;1.83;;;;;;;15.17;51.21;100741.81;4984718;28;20055;-79
2022/06/19 04:50:01;;;;;;;8.88;1.52;;;;;;;15.20;51.28;100720.13;4987900;28;20033;-78
2022/06/19 04:52:26;;;;;;;14.55;2.10;;;;;;;15.24;51.37;100704.59;4991731;28;20037;-79
2022/06/19 04:54:52;;;;;;;6.65;1.35;;;;;;;15.25;51.55;100695.59;4986371;28;20082;-78
2022/06/19 04:57:17;;;;;;;9.18;1.63;;;;;;;15.27;51.27;100690.94;4987270;28;20475;-78
2022/06/19 04:59:43;;;;;;;6.95;1.48;;;;;;;15.30;51.60;100696.81;4950847;28;20034;-79
2022/06/19 05:02:12;;;;;;;7.93;1.83;;;;;;;15.35;52.03;100701.72;4971297;28;20030;-78
2022/06/19 05:04:37;;;;;;;9.60;1.80;;;;;;;15.41;51.42;100719.00;4988955;28;20557;-78
2022/06/19 05:07:03;;;;;;;7.93;1.85;;;;;;;15.41;51.13;100735.06;4989359;28;20293;-79
2022/06/19 05:09:28;;;;;;;11.35;1.88;;;;;;;15.46;51.36;100773.75;4985726;28;20054;-79
2022/06/19 05:11:53;;;;;;;6.45;1.50;;;;;;;15.54;51.49;100787.22;4985561;28;20022;-79
2022/06/19 05:14:19;;;;;;;4.68;1.52;;;;;;;15.63;51.59;100782.78;4959432;28;20118;-78
2022/06/19 05:16:44;;;;;;;6.50;1.92;;;;;;;15.63;51.20;100763.22;4973852;28;20061;-80
2022/06/19 05:19:10;;;;;;;12.13;2.25;;;;;;;15.68;51.21;100758.25;4993977;28;20034;-78
2022/06/19 05:21:36;;;;;;;6.45;1.60;;;;;;;15.75;51.42;100770.03;4989878;28;20034;-78
2022/06/19 05:24:01;;;;;;;5.13;1.55;;;;;;;15.87;52.38;100779.56;4992498;28;20073;-78
2022/06/19 05:26:30;;;;;;;6.68;1.58;;;;;;;15.92;51.29;100797.84;4993670;28;20060;-78
2022/06/19 05:28:56;;;;;;;8.93;1.73;;;;;;;15.98;50.21;100818.66;4993410;28;20065;-79
2022/06/19 05:31:23;;;;;;;9.38;2.38;;;;;;;16.13;51.52;100826.97;4969336;28;20035;-78
2022/06/19 05:33:49;;;;;;;8.75;1.90;;;;;;;16.28;50.74;100843.34;4975766;28;20037;-78
2022/06/19 05:36:15;;;;;;;9.52;2.10;;;;;;;16.47;51.03;100871.84;4987657;28;20351;-78
2022/06/19 05:38:41;;;;;;;8.48;1.65;;;;;;;16.67;52.16;100885.03;4981944;28;20027;-78
2022/06/19 05:41:06;;;;;;;6.35;1.50;;;;;;;16.91;52.26;100885.25;4991936;28;20084;-79
2022/06/19 05:43:34;;;;;;;10.85;1.73;;;;;;;17.05;51.94;100891.03;4990882;28;20049;-78
2022/06/19 05:46:02;;;;;;;10.65;2.53;;;;;;;17.25;51.33;100905.06;4993503;28;20038;-79
2022/06/19 05:48:29;;;;;;;9.35;2.00;;;;;;;17.42;50.53;100893.41;4990213;28;20837;-79
2022/06/19 05:51:05;;;;;;;7.00;1.67;;;;;;;17.57;49.52;100867.59;4995424;28;20117;-79
2022/06/19 05:53:35;;;;;;;5.70;1.65;;;;;;;17.64;49.44;100880.41;4995860;28;20073;-79
2022/06/19 05:56:01;;;;;;;8.77;1.90;;;;;;;17.66;50.70;100916.00;5002243;28;20362;-78
2022/06/19 05:58:27;;;;;;;8.82;2.35;;;;;;;17.72;49.57;100928.78;4987947;28;20110;-79
2022/06/19 06:00:53;;;;;;;9.20;2.05;;;;;;;17.76;50.09;100930.13;4979600;28;20109;-78
2022/06/19 06:03:20;;;;;;;5.13;1.88;;;;;;;17.79;49.68;100935.19;4997182;28;20058;-79
2022/06/19 06:05:49;;;;;;;8.52;1.80;;;;;;;17.81;49.67;100935.84;4989431;28;20035;-78
2022/06/19 06:08:15;;;;;;;10.27;1.98;;;;;;;17.82;49.80;100942.06;4997586;28;20053;-78
2022/06/19 06:10:41;;;;;;;9.80;2.47;;;;;;;17.71;50.02;100964.69;4990827;28;20022;-78
2022/06/19 06:13:07;;;;;;;12.00;2.10;;;;;;;17.69;50.30;100988.19;4996192;28;20033;-80
2022/06/19 06:15:33;;;;;;;6.03;1.85;;;;;;;17.76;49.80;100992.75;4977518;28;20119;-79
2022/06/19 06:18:00;;;;;;;10.57;1.80;;;;;;;17.69;49.73;100980.13;4979526;28;20030;-79
2022/06/19 06:20:26;;;;;;;8.48;1.80;;;;;;;17.63;50.37;100972.72;4997652;28;20033;-80
2022/06/19 06:22:52;;;;;;;8.50;1.70;;;;;;;17.61;50.18;101026.59;4998472;28;20022;-79
2022/06/19 06:25:17;;;;;;;8.07;1.90;;;;;;;17.59;50.82;101078.78;4998219;28;20034;-80
2022/06/19 06:27:43;;;;;;;9.23;1.98;;;;;;;17.54;50.18;101081.94;4987954;28;20066;-80
2022/06/19 06:30:10;;;;;;;6.90;1.83;;;;;;;17.48;51.12;101088.78;4996842;28;20026;-79
2022/06/19 06:32:39;;;;;;;11.10;2.35;;;;;;;17.44;53.10;101124.16;4997445;28;20416;-79
2022/06/19 06:35:05;;;;;;;11.00;2.40;;;;;;;17.34;56.92;101175.28;4993973;28;20477;-79
2022/06/19 06:37:32;;;;;;;9.02;1.83;;;;;;;17.18;56.94;101219.72;4995870;28;20031;-79
2022/06/19 06:39:57;;;;;;;11.10;2.10;;;;;;;17.13;59.33;101222.03;4995303;28;20026;-78
2022/06/19 06:42:23;;;;;;;11.55;2.08;;;;;;;17.07;57.49;101213.72;4991255;28;20018;-78
2022/06/19 06:44:48;;;;;;;8.65;1.90;;;;;;;17.08;58.77;101216.25;4992330;28;20042;-78
2022/06/19 06:47:14;;;;;;;11.52;2.28;;;;;;;17.04;59.62;101214.03;4979062;28;20026;-77
2022/06/19 06:49:39;;;;;;;8.85;1.75;;;;;;;17.00;62.32;101210.81;4996730;28;20098;-78
2022/06/19 06:52:08;;;;;;;9.57;2.30;;;;;;;16.91;61.10;101192.94;4987218;28;20031;-77
2022/06/19 06:54:38;;;;;;;8.50;1.80;;;;;;;16.92;60.47;101189.25;4972160;28;20282;-78
2022/06/19 06:57:06;;;;;;;6.72;2.35;;;;;;;16.88;63.57;101188.72;4992220;28;20131;-78
2022/06/19 06:59:32;;;;;;;11.60;2.15;;;;;;;16.93;60.06;101175.69;4989446;28;20068;-76
2022/06/19 07:01:57;;;;;;;9.02;2.38;;;;;;;16.93;62.61;101177.53;4993953;28;20444;-77
2022/06/19 07:04:23;;;;;;;11.07;2.33;;;;;;;16.93;64.11;101174.84;4995320;28;20058;-76
2022/06/19 07:06:48;;;;;;;9.70;1.80;;;;;;;16.88;60.57;101166.41;4995200;28;20058;-77
2022/06/19 07:09:14;;;;;;;11.95;1.77;;;;;;;16.86;60.20;101174.59;4994660;28;20042;-77
2022/06/19 07:11:42;;;;;;;9.68;1.80;;;;;;;16.81;60.16;101180.38;4990084;28;20067;-77
2022/06/19 07:14:09;;;;;;;8.50;1.60;;;;;;;16.75;59.32;101202.47;4990723;28;20019;-77
2022/06/19 07:16:34;;;;;;;9.02;1.98;;;;;;;16.69;59.43;101229.03;4990049;28;20300;-77
2022/06/19 07:19:00;;;;;;;7.43;2.00;;;;;;;16.64;60.93;101229.47;4994606;28;20034;-77
2022/06/19 07:21:27;;;;;;;11.82;2.30;;;;;;;16.58;60.30;101222.84;4986483;28;20031;-78
2022/06/19 07:23:53;;;;;;;6.53;1.88;;;;;;;16.54;60.53;101196.50;4987654;28;20030;-78
2022/06/19 07:26:20;;;;;;;13.85;2.30;;;;;;;16.38;63.11;101149.69;4989373;28;20113;-78
2022/06/19 07:28:46;;;;;;;15.68;2.40;;;;;;;16.32;66.22;101126.19;4995617;28;20026;-77
2022/06/19 07:31:12;;;;;;;8.43;2.13;;;;;;;16.23;65.07;101108.28;4977561;28;20037;-79
2022/06/19 07:33:38;;;;;;;9.70;1.95;;;;;;;16.16;66.50;101091.13;4995546;28;20027;-78
2022/06/19 07:36:05;;;;;;;6.60;2.10;;;;;;;16.00;67.35;101052.41;4992663;28;20037;-79
2022/06/19 07:38:32;;;;;;;9.55;2.38;;;;;;;15.94;68.57;101047.66;4994444;28;20416;-79
2022/06/19 07:40:58;;;;;;;9.52;2.45;;;;;;;15.81;67.47;101052.50;4992972;28;20034;-80
2022/06/19 07:43:25;;;;;;;9.60;2.40;;;;;;;15.75;68.20;101032.44;4993217;28;20037;-80
2022/06/19 07:45:51;;;;;;;11.20;2.35;;;;;;;15.61;68.82;101009.69;4986034;28;20035;-78
2022/06/19 07:51:00;;;;;;;14.52;2.22;;;;;;;15.50;72.55;101044.66;4994823;28;20041;-79
2022/06/19 07:53:25;;;;;;;11.60;2.10;;;;;;;15.52;70.64;101104.25;4994185;28;20022;-79
2022/06/19 07:55:51;;;;;;;9.07;2.47;;;;;;;15.47;71.09;101147.53;4992394;28;20277;-79
2022/06/19 07:58:16;;;;;;;8.43;2.47;;;;;;;15.53;71.72;101188.94;4994988;28;20505;-78
2022/06/19 08:00:42;;;;;;;8.52;2.28;;;;;;;15.56;73.06;101185.97;4990896;28;20027;-79
2022/06/19 08:03:07;;;;;;;13.43;2.17;;;;;;;15.53;71.38;101159.47;4986225;28;20019;-80
2022/06/19 08:05:35;;;;;;;9.65;2.22;;;;;;;15.42;69.15;101133.72;4971856;28;20109;-79
2022/06/19 08:08:03;;;;;;;13.00;2.65;;;;;;;15.44;70.29;101126.38;4991154;28;20030;-79
2022/06/19 08:10:36;;;;;;;13.33;2.47;;;;;;;15.45;72.34;101120.03;4991555;28;20065;-79
2022/06/19 08:13:02;;;;;;;10.65;2.70;;;;;;;15.47;72.93;101085.09;4994864;28;20841;-78
2022/06/19 08:15:29;;;;;;;13.73;2.92;;;;;;;15.46;73.25;101100.31;4968018;28;20049;-79
2022/06/19 08:17:54;;;;;;;11.52;2.30;;;;;;;15.48;74.42;101145.69;4993680;28;20046;-80
2022/06/19 08:20:21;;;;;;;13.32;2.50;;;;;;;15.59;75.05;101126.78;4994572;28;20115;-80
2022/06/19 08:22:46;;;;;;;14.48;2.55;;;;;;;15.60;73.19;101079.44;4986150;28;20038;-79
2022/06/19 08:25:14;;;;;;;10.77;2.45;;;;;;;15.59;73.08;101105.38;4987518;28;20023;-80
2022/06/19 08:27:42;;;;;;;11.32;3.30;;;;;;;15.69;73.71;101087.44;4979989;28;20069;-80
2022/06/19 08:30:14;;;;;;;10.13;2.55;;;;;;;15.73;74.38;101075.44;4992696;28;20383;-80
2022/06/19 08:32:40;;;;;;;12.55;2.70;;;;;;;15.79;76.33;101071.38;4976395;28;20053;-80
2022/06/19 08:35:06;;;;;;;11.20;2.90;;;;;;;15.81;77.61;101069.41;4984757;28;20660;-81
2022/06/19 08:37:33;;;;;;;14.35;2.65;;;;;;;15.82;74.83;101046.13;4975223;28;20111;-79
2022/06/19 08:39:59;;;;;;;8.95;2.17;;;;;;;15.83;75.07;101047.84;4992474;28;20428;-80
2022/06/19 08:42:44;;;;;;;13.77;2.63;;;;;;;15.81;75.59;101023.03;4993718;28;20034;-80
2022/06/19 08:45:33;;;;;;;11.50;2.63;;;;;;;15.81;74.50;100986.38;4975387;28;20031;-80
2022/06/19 08:48:13;;;;;;;14.63;3.28;;;;;;;15.70;75.64;100952.59;4975048;28;20034;-80
2022/06/19 08:50:46;;;;;;;11.23;2.58;;;;;;;15.68;77.96;100977.81;4985685;28;20035;-79
2022/06/19 08:53:28;;;;;;;15.05;3.92;;;;;;;15.70;77.80;100991.88;4964040;28;20104;-79
2022/06/19 08:56:23;;;;;;;15.88;2.83;;;;;;;15.70;75.45;100999.91;4982137;28;20026;-79
2022/06/19 08:59:00;;;;;;;13.82;3.13;;;;;;;15.67;75.22;100997.53;4979206;28;20092;-79
2022/06/19 09:01:41;;;;;;;14.68;2.70;;;;;;;15.76;74.96;101010.09;4984544;28;20026;-79
2022/06/19 09:07:33;;;;;;;15.40;2.92;;;;;;;15.88;74.43;101046.38;4994401;28;20482;-79
2022/06/19 09:10:18;;;;;;;9.45;2.72;;;;;;;16.02;73.38;101054.94;4994110;28;20132;-79
2022/06/19 09:13:01;;;;;;;11.68;2.95;;;;;;;16.18;73.08;101062.34;4992845;28;20031;-79
2022/06/19 09:15:57;;;;;;;9.82;2.08;;;;;;;16.50;72.32;101114.66;4992490;28;20070;-81
2022/06/19 09:18:39;;;;;;;13.68;3.10;;;;;;;16.52;70.79;101140.34;4979875;28;20035;-80
2022/06/19 09:21:32;;;;;;;9.38;2.85;;;;;;;16.63;71.15;101158.88;4983822;28;20022;-81
2022/06/19 09:24:29;;;;;;;10.20;2.97;;;;;;;16.64;71.89;101139.13;4986515;28;20050;-80
2022/06/19 09:27:00;;;;;;;9.43;2.30;;;;;;;16.68;71.83;101136.16;4989765;28;20027;-79
2022/06/19 09:29:38;;;;;;;11.20;2.88;;;;;;;16.77;70.15;101132.53;5008285;28;20093;-78
2022/06/19 09:32:15;;;;;;;12.02;3.05;;;;;;;16.75;69.84;101121.13;5005970;28;20062;-79
2022/06/19 09:34:52;;;;;;;9.90;2.42;;;;;;;16.76;66.61;101115.63;4996511;28;20030;-79
2022/06/19 09:37:26;;;;;;;10.73;2.88;;;;;;;16.81;65.86;101104.44;4989737;28;20023;-78
2022/06/19 09:40:01;;;;;;;8.32;2.83;;;;;;;16.83;64.75;101100.59;4998974;28;20114;-78
2022/06/19 09:42:30;;;;;;;7.70;2.30;;;;;;;16.92;65.50;101084.59;4995986;28;20023;-79
2022/06/19 09:45:04;;;;;;;10.40;2.53;;;;;;;17.04;67.50;101064.63;5005880;28;20030;-79
2022/06/19 09:47:47;;;;;;;10.45;2.33;;;;;;;17.12;66.54;101040.53;4994803;28;20494;-79
2022/06/19 09:50:21;;;;;;;10.13;2.28;;;;;;;17.27;67.89;101029.22;4992305;28;20037;-79
2022/06/19 09:53:24;;;;;;;9.77;2.60;;;;;;;17.43;66.87;101053.50;4998685;28;20027;-79
2022/06/19 09:56:05;;;;;;;9.95;2.60;;;;;;;17.50;65.79;101057.25;4985626;28;20038;-78
2022/06/19 09:58:41;;;;;;;9.23;2.58;;;;;;;17.56;65.20;101037.81;4987180;28;20058;-78
2022/06/19 10:01:07;;;;;;;8.57;2.67;;;;;;;17.60;64.69;101019.53;5001660;28;20026;-78
2022/06/19 10:03:43;;;;;;;9.88;2.65;;;;;;;17.64;63.66;101020.06;4996775;28;20050;-78
2022/06/19 10:06:39;;;;;;;11.23;2.47;;;;;;;17.63;63.99;101013.84;4979734;28;20548;-78
2022/06/19 10:09:19;;;;;;;12.55;2.55;;;;;;;17.71;64.02;101018.41;4995682;28;20407;-78
2022/06/19 10:11:45;;;;;;;8.38;2.75;;;;;;;17.86;64.53;100999.84;4998762;28;20049;-78
2022/06/19 10:14:21;;;;;;;9.35;2.45;;;;;;;18.07;64.49;100996.78;4993806;28;20490;-78
2022/06/19 10:16:58;;;;;;;6.97;2.72;;;;;;;18.28;63.11;100991.78;5002605;28;20054;-78
2022/06/19 10:19:51;;;;;;;11.25;2.85;;;;;;;18.42;60.64;100987.63;5003107;28;20426;-77
2022/06/19 10:22:35;;;;;;;6.95;2.10;;;;;;;18.67;62.72;100976.88;4996299;28;20078;-77
2022/06/19 10:25:20;;;;;;;8.75;2.53;;;;;;;19.14;63.10;100976.22;4994307;28;20493;-80
2022/06/19 10:28:07;;;;;;;9.20;2.60;;;;;;;19.30;61.07;100967.28;4992500;28;20124;-78
2022/06/19 10:31:19;;;;;;;12.00;3.10;;;;;;;19.51;60.99;100982.03;4991665;28;20387;-78
2022/06/19 10:34:03;;;;;;;8.27;1.85;;;;;;;19.65;57.47;101005.56;4984772;28;20030;-79
2022/06/19 10:36:58;;;;;;;8.98;2.30;;;;;;;19.74;57.96;101001.81;4998137;28;20081;-78
2022/06/19 10:39:48;;;;;;;10.77;2.72;;;;;;;19.84;56.12;100993.56;4986257;28;20085;-78
2022/06/19 10:42:34;;;;;;;6.15;1.73;;;;;;;19.83;53.16;100986.47;4995464;28;20061;-78
2022/06/19 10:45:10;;;;;;;4.97;1.60;;;;;;;19.79;50.18;100979.78;4994402;28;20117;-77
2022/06/19 10:48:00;;;;;;;6.70;1.85;;;;;;;19.98;51.75;100989.28;4994796;28;20502;-78
2022/06/19 10:51:08;;;;;;;5.70;2.20;;;;;;;20.17;51.76;100995.25;4990612;28;20022;-78
2022/06/19 10:53:50;;;;;;;5.32;1.48;;;;;;;20.27;49.68;101014.78;4947486;28;20046;-78
2022/06/19 10:56:50;;;;;;;6.85;1.67;;;;;;;20.40;51.33;101030.34;4983142;28;20046;-78
2022/06/19 10:59:16;;;;;;;5.55;1.60;;;;;;;20.51;50.86;101046.97;4991458;28;20056;-78
2022/06/19 11:05:01;;;;;;;6.07;1.95;;;;;;;20.59;49.48;101037.16;4985186;28;20057;-78
2022/06/19 11:07:31;;;;;;;5.38;1.52;;;;;;;20.80;47.28;101039.22;4994137;28;20376;-78
2022/06/19 11:10:10;;;;;;;4.85;2.20;;;;;;;20.92;48.53;101035.09;4995999;28;20035;-78
2022/06/19 11:12:45;;;;;;;4.28;1.63;;;;;;;21.20;48.39;101034.50;4994415;28;20451;-78
2022/06/19 11:15:19;;;;;;;5.25;1.75;;;;;;;21.30;47.94;101036.94;4976840;28;20298;-78
2022/06/19 11:17:44;;;;;;;8.80;1.77;;;;;;;21.46;47.54;101058.41;4986799;28;20066;-78
2022/06/19 11:20:28;;;;;;;4.77;1.50;;;;;;;21.55;48.77;101070.88;4988255;28;20044;-78
2022/06/19 11:23:31;;;;;;;4.93;1.70;;;;;;;21.61;49.91;101075.50;4975390;28;20400;-79
2022/06/19 11:26:00;;;;;;;8.43;1.90;;;;;;;21.55;50.67;101067.31;4994701;28;20527;-78
2022/06/19 11:28:38;;;;;;;;;;;;;;;21.92;50.36;101062.88;4975008;28;20042;-79
2022/06/19 11:31:13;;;;;;;5.72;1.83;;;;;;;21.93;48.08;101072.63;4976615;28;19921;-78
2022/06/19 11:33:40;;;;;;;6.00;1.52;;;;;;;21.89;47.66;101083.00;4994658;28;20034;-80
2022/06/19 11:36:12;;;;;;;6.53;1.70;;;;;;;21.93;48.18;101081.63;4994524;28;20109;-78
2022/06/19 11:38:45;;;;;;;6.45;2.05;;;;;;;21.93;47.85;101084.31;4998337;28;20037;-79
2022/06/19 11:41:16;;;;;;;5.90;2.20;;;;;;;21.80;49.09;101078.72;4990060;28;20124;-78
2022/06/19 11:43:42;;;;;;;4.78;1.67;;;;;;;21.87;46.12;101076.09;4973651;28;20463;-80
2022/06/19 11:46:19;;;;;;;5.70;1.88;;;;;;;21.89;47.30;101069.47;4987031;28;20071;-80
2022/06/19 11:48:44;;;;;;;5.60;1.63;;;;;;;21.95;48.13;101073.31;4983888;28;20031;-80